LFRO/LAI METAR and TAF weather

Enter ICAO airport designator
Station Type Date Time Source
LFRO METAR 2022/12/03 21:00 UTC NOAA

LFRO 032100Z AUTO 08007KT 050V110 9999 OVC017 05/03 Q1013


Station Type Date Time Source
LFRO Decoded METAR 2022/12/03 21:00 UTC NOAA

Lannion / Servel, France (LFRO) 48-45N 003-28W
Dec 03, 2022 - 04:00 PM EST / 2022.12.03 2100 UTC
Wind: from the E (080 degrees) at 8 MPH (7 KT) (direction variable):0
Visibility: greater than 7 mile(s):0
Sky conditions: overcast
Temperature: 41 F (5 C)
Dew Point: 37 F (3 C)
Relative Humidity: 86%
Pressure (altimeter): 29.91 in. Hg (1013 hPa)
ob: LFRO 032100Z AUTO 08007KT 050V110 9999 OVC017 05/03 Q1013
cycle: 21

Station Type Date Time Source
LFRO TAF 2019/05/15 19:06 UTC NOAA

TAF LFRO 151936Z 1519/1612 CNL

Example: see airport list